AirNav   Everest Fuels
 
 576 users online  

TN65 Long Meadow Airstrip
Murfreesboro, Tennessee, USA

GOING TO MURFREESBORO?


FAA INFORMATION EFFECTIVE 18 JUNE 2020

Location

FAA Identifier: TN65
Lat/Long: 35-39-59.0000N 086-29-07.0000W
35-39.983333N 086-29.116667W
35.6663889,-86.4852778
(estimated)
Elevation: 750 ft. / 229 m (estimated)
Variation: 02W (1995)
From city: 13 miles S of MURFREESBURG, TN
Time zone: UTC -5 (UTC -6 during Standard Time)
Zip code: 37020

Airport Operations

Airport use: Private use. Permission required prior to landing
Activation date: 09/2000
Control tower: no
ARTCC: MEMPHIS CENTER
FSS: NASHVILLE FLIGHT SERVICE STATION
Attendance: UNATNDD
Segmented circle: no

Airport Communications

WX AWOS-3 at SYI (7 nm S): 119.275 (931-685-4723)
WX AWOS-3 at MBT (14 nm N): 133.975 (615-849-2622)
WX AWOS-3 at LUG (18 nm SW): 135.775 (931-270-1014)

Nearby radio navigation aids

VOR radial/distance  VOR name  Freq  Var
SYIr341/6.7SHELBYVILLE VOR/DME113.5501W
BNAr163/29.9NASHVILLE VORTAC114.1002W

 
NDB name  Hdg/Dist  Freq  Var  ID
WALTER HILL199/18.537102WFQW ..-. --.- .--

Airport Services

Runway Information

Runway 1/19

Dimensions: 2400 x 75 ft. / 732 x 23 m
Surface: turf
RUNWAY 1  RUNWAY 19
Traffic pattern: leftleft
Obstructions: none35 ft. tree, 400 ft. from runway

Airport Ownership and Management from official FAA records

Ownership: Privately-owned
Owner: JOSEPH F. & LINDA L. ROBERTS
4243 MIDLAND ROSTERVILLE ROAD
BELL BUCKLE, TN 37020-6043
Phone 615-233-5301
Manager: JOSEPH F. & LINDA L. ROBERTS
4243 MIDLAND ROSTERVILLE ROAD
BELL BUCKLE, TN 37020-6043
Phone 615-233-5301

Airport Operational Statistics

Aircraft based on the field: 2
Single engine airplanes: 1
Ultralights: 1
    

Additional Remarks

FOR CD CTC NASHVILLE APCH AT 615-695-4522.

Instrument Procedures

There are no published instrument procedures at TN65.

Some nearby airports with instrument procedures:

KSYI - Bomar Field-Shelbyville Municipal Airport (7 nm S)
KMBT - Murfreesboro Municipal Airport (14 nm N)
KLUG - Ellington Airport (18 nm SW)
KMQY - Smyrna Airport (21 nm N)
KTHA - Tullahoma Regional Airport/William Northern Field (21 nm SE)
 
Loc | Ops | Rwys | IFR | FBO | Links
Com | Nav | Svcs | Stats | Notes
Area around TN65 (Long Meadow Airstrip)
 
Road maps at: MapQuest Bing Google
 
Aerial photo
WARNING: Photo may not be current or correct
Aerial photo of TN65 (Long Meadow Airstrip)
Photo by Joe Roberts
Taken in the Fall of 2008

Do you have a better or more recent aerial photo of Long Meadow Airstrip that you would like to share? If so, please send us your photo.

 
Sectional chart

 
Airport distance calculator
Flying to Long Meadow Airstrip? Find the distance to fly.

From to TN65

Sunrise and sunset
Times for 09-Jul-2020
 Local
(UTC-5)
 Zulu
(UTC)
Morning civil twilight05:1010:10
Sunrise05:3910:39
Sunset20:0301:03
Evening civil twilight20:3301:33

Current date and time
Zulu (UTC)  10-Jul-2020 04:59:01
Local (UTC-5)  09-Jul-2020 23:59:01
 
METAR
KSYI 
7nm S 
100435Z AUTO 00000KT 10SM CLR 24/23 A2993 RMK A01
KMBT 
14nm N 
100435Z AUTO 00000KT 10SM CLR 26/23 A2990 RMK A01
KLUG 
18nm SW 
100435Z AUTO 00000KT 10SM 23/23 A2992 RMK A01
TAF
KMQY 
21nm N 
091732Z 0918/1018 18003KT P6SM VCTS BKN050CB BKN100 FM100100 21003KT P6SM SCT100 FM100900 00000KT 5SM BR SKC FM101400 26005KT P6SM VCTS BKN100CB
NOTAMs
Click for the latest NOTAMs
NOTAMs are issued by the DoD/FAA and will open in a separate window not controlled by AirNav.

 

 
 

Would you like to see your business listed on this page?

 If your business provides an interesting product or service to pilots, flight crews, aircraft, or users of the Long Meadow Airstrip, you should consider listing it here.  To start the listing process, click on the button below
 
Add a business
 

Other Pages about Long Meadow Airstrip

Update a link
 
Copyright © AirNav, LLC. All rights reserved. Privacy Policy  Contact